Terminal Aerodrome Forecast
Issued by NWS

Home | Current Version | Previous Version | Text Only | Print | Product List | Glossary On
Versions: 1 2 3 4 5 6 7 8 9 10 11 12 13 14 15 16 17
000
FTUS43 KMQT 011128
TAFIWD
TAF
KIWD 011128Z 0112/0212 03004KT 1/4SM FG OVC001
      TEMPO 0112/0114 1SM BR OVC003
     FM011400 03005KT 3SM BR SCT010
     FM011500 03007KT P6SM SCT060
     FM020100 02003KT P6SM SKC
      AMD LTD TO VIS AND WIND=

USA.gov is the U.S. government's official web portal to all federal, state and local government web resources and services.